Time;durP1;ratioP1;P1;durP2;ratioP2;P2;SDS_P1;SDS_P2;PMS_P1;PMS_P2;Temp;Humidity;BMP_temperature;BMP_pressure;BME280_temperature;BME280_humidity;BME280_pressure;Samples;Min_cycle;Max_cycle;Signal;HPM_P1;HPM_P2
2021/11/16 00:00:25;;;;;;;39.83;21.05;;;7.70;83.60;;;;;;4935834;29;20060;-85
2021/11/16 00:02:52;;;;;;;43.22;21.15;;;7.70;83.60;;;;;;4933794;29;20106;-85
2021/11/16 00:05:19;;;;;;;44.08;22.17;;;7.70;83.60;;;;;;4933674;29;20543;-85
2021/11/16 00:07:48;;;;;;;41.78;21.85;;;7.70;83.60;;;;;;4933835;29;20138;-85
2021/11/16 00:10:15;;;;;;;45.35;22.80;;;7.70;83.60;;;;;;4933865;29;20047;-85
2021/11/16 00:12:42;;;;;;;43.00;21.63;;;7.70;83.60;;;;;;4935080;29;20099;-85
2021/11/16 00:15:09;;;;;;;42.33;21.75;;;7.70;83.60;;;;;;4933288;29;20063;-85
2021/11/16 00:17:37;;;;;;;42.53;22.08;;;7.70;83.60;;;;;;4932355;29;20505;-85
2021/11/16 00:20:10;;;;;;;45.00;22.85;;;7.70;83.60;;;;;;4933252;29;20131;-85
2021/11/16 00:22:38;;;;;;;39.90;21.30;;;7.70;83.60;;;;;;4933608;29;20047;-85
2021/11/16 00:25:18;;;;;;;45.05;22.20;;;7.70;83.60;;;;;;4933517;29;20509;-85
2021/11/16 00:27:47;;;;;;;44.90;21.70;;;7.70;83.60;;;;;;4932039;29;20047;-85
2021/11/16 00:30:15;;;;;;;44.67;22.85;;;7.70;83.60;;;;;;4934757;29;20107;-85
2021/11/16 00:32:43;;;;;;;41.10;21.48;;;7.70;83.60;;;;;;4933395;29;20111;-84
2021/11/16 00:35:10;;;;;;;44.15;22.83;;;7.70;83.60;;;;;;4932977;29;20067;-85
2021/11/16 00:37:37;;;;;;;46.70;22.98;;;7.70;83.60;;;;;;4933175;29;20051;-85
2021/11/16 00:40:09;;;;;;;49.80;23.95;;;7.70;83.60;;;;;;4932422;29;20051;-85
2021/11/16 00:42:36;;;;;;;47.00;22.70;;;7.70;83.60;;;;;;4931517;29;20107;-85
2021/11/16 00:45:05;;;;;;;48.05;23.27;;;7.70;83.60;;;;;;4931932;29;20048;-86
2021/11/16 00:47:33;;;;;;;43.08;21.77;;;7.70;83.60;;;;;;4933120;29;20056;-86
2021/11/16 00:50:00;;;;;;;51.78;24.05;;;7.70;83.60;;;;;;4932752;29;20062;-85
2021/11/16 00:52:27;;;;;;;47.33;24.05;;;7.60;83.60;;;;;;4931972;29;20051;-85
2021/11/16 00:54:54;;;;;;;45.53;23.27;;;7.70;83.60;;;;;;4933440;29;20055;-86
2021/11/16 00:57:21;;;;;;;47.47;23.73;;;7.70;83.60;;;;;;4933562;29;20131;-85
2021/11/16 00:59:49;;;;;;;44.95;22.23;;;7.70;83.60;;;;;;4932772;29;20056;-86
2021/11/16 01:02:16;;;;;;;48.80;22.15;;;7.70;83.60;;;;;;4932660;29;20051;-85
2021/11/16 01:04:49;;;;;;;49.42;24.35;;;7.70;83.60;;;;;;4932755;29;20043;-86
2021/11/16 01:07:16;;;;;;;42.58;22.40;;;7.60;83.60;;;;;;4932783;29;20621;-85
2021/11/16 01:09:45;;;;;;;44.20;23.33;;;7.60;83.60;;;;;;4934108;29;20059;-85
2021/11/16 01:12:14;;;;;;;44.60;22.75;;;7.60;83.60;;;;;;4933709;29;20060;-85
2021/11/16 01:14:41;;;;;;;43.50;22.92;;;7.60;83.60;;;;;;4932552;29;20063;-86
2021/11/16 01:17:08;;;;;;;44.72;22.85;;;7.60;83.60;;;;;;4932190;29;20089;-85
2021/11/16 01:19:36;;;;;;;43.05;21.27;;;7.60;83.60;;;;;;4932442;29;20044;-85
2021/11/16 01:22:04;;;;;;;42.78;22.38;;;7.60;83.60;;;;;;4932648;29;20047;-86
2021/11/16 01:24:31;;;;;;;43.58;22.50;;;7.60;83.60;;;;;;4934502;29;20141;-85
2021/11/16 01:26:58;;;;;;;42.22;19.70;;;7.60;83.60;;;;;;4932485;29;20074;-85
2021/11/16 01:29:25;;;;;;;42.05;21.35;;;7.60;83.60;;;;;;4932278;29;20138;-85
2021/11/16 01:31:55;;;;;;;42.17;22.80;;;7.60;83.60;;;;;;4931905;29;20095;-85
2021/11/16 01:34:31;;;;;;;44.65;20.75;;;7.60;83.60;;;;;;4931111;29;20088;-85
2021/11/16 01:36:58;;;;;;;41.38;21.08;;;7.60;83.60;;;;;;4932162;29;20060;-85
2021/11/16 01:39:26;;;;;;;41.58;20.83;;;7.60;83.60;;;;;;4934101;29;20122;-85
2021/11/16 01:41:54;;;;;;;42.83;21.88;;;7.60;83.60;;;;;;4931926;29;20055;-85
2021/11/16 01:44:21;;;;;;;42.53;20.08;;;7.60;83.60;;;;;;4932203;29;20059;-85
2021/11/16 01:46:48;;;;;;;43.10;21.13;;;7.60;83.60;;;;;;4932019;29;20040;-86
2021/11/16 01:49:15;;;;;;;41.97;20.52;;;7.60;83.60;;;;;;4932050;29;20044;-85
2021/11/16 01:51:42;;;;;;;48.45;21.45;;;7.50;83.60;;;;;;4933378;29;20047;-86
2021/11/16 01:54:09;;;;;;;40.47;20.10;;;7.60;83.60;;;;;;4932559;29;20066;-86
2021/11/16 01:56:43;;;;;;;42.22;21.85;;;7.50;83.60;;;;;;4931754;29;20406;-85
2021/11/16 01:59:11;;;;;;;42.97;21.67;;;7.60;83.60;;;;;;4931712;29;20052;-85
2021/11/16 02:01:40;;;;;;;39.85;20.38;;;7.50;83.60;;;;;;4930404;29;20048;-85
2021/11/16 02:04:08;;;;;;;38.92;20.08;;;7.50;83.60;;;;;;4917134;29;20059;-85
2021/11/16 02:06:38;;;;;;;43.47;21.52;;;7.50;83.60;;;;;;4933870;29;20052;-85
2021/11/16 02:09:14;;;;;;;39.67;19.70;;;7.50;83.60;;;;;;4930999;29;20060;-85
2021/11/16 02:11:42;;;;;;;40.25;19.92;;;7.60;83.60;;;;;;4931854;29;20052;-86
2021/11/16 02:14:12;;;;;;;40.58;20.80;;;7.50;83.60;;;;;;4930362;29;20051;-86
2021/11/16 02:16:40;;;;;;;43.83;21.73;;;7.50;83.60;;;;;;4931596;29;20102;-85
2021/11/16 02:19:10;;;;;;;41.17;21.13;;;7.50;83.60;;;;;;4916822;29;20048;-86
2021/11/16 02:21:38;;;;;;;41.63;22.08;;;7.50;83.60;;;;;;4929986;29;20571;-85
2021/11/16 02:24:06;;;;;;;39.67;20.88;;;7.50;83.70;;;;;;4932121;29;20110;-85
2021/11/16 02:26:34;;;;;;;41.40;21.35;;;7.50;83.60;;;;;;4931606;29;20048;-85
2021/11/16 02:29:04;;;;;;;44.33;22.05;;;7.50;83.70;;;;;;4931599;29;20051;-85
2021/11/16 02:31:31;;;;;;;45.55;21.45;;;7.50;83.70;;;;;;4931329;29;20044;-87
2021/11/16 02:33:58;;;;;;;42.97;21.75;;;7.50;83.70;;;;;;4931704;29;20056;-86
2021/11/16 02:36:31;;;;;;;41.53;22.23;;;7.50;83.70;;;;;;4933493;29;20542;-86
2021/11/16 02:38:58;;;;;;;42.20;21.20;;;7.50;83.70;;;;;;4931491;29;20529;-86
2021/11/16 02:41:31;;;;;;;41.97;21.63;;;7.50;83.70;;;;;;4931466;29;20633;-86
2021/11/16 02:44:00;;;;;;;43.38;22.63;;;7.50;83.70;;;;;;4931029;29;20043;-86
2021/11/16 02:46:27;;;;;;;42.75;21.73;;;7.50;83.70;;;;;;4931752;29;20110;-86
2021/11/16 02:48:55;;;;;;;41.42;22.05;;;7.50;83.70;;;;;;4931395;29;20056;-86
2021/11/16 02:51:23;;;;;;;51.05;22.25;;;7.50;83.70;;;;;;4933447;29;20432;-86
2021/11/16 02:53:50;;;;;;;42.22;21.65;;;7.50;83.70;;;;;;4930013;29;20059;-85
2021/11/16 02:56:17;;;;;;;39.15;20.75;;;7.50;83.70;;;;;;4931213;29;20052;-85
2021/11/16 02:58:44;;;;;;;42.47;20.45;;;7.50;83.70;;;;;;4931082;29;20066;-85
2021/11/16 03:01:16;;;;;;;39.92;21.88;;;7.50;83.70;;;;;;4931401;29;20048;-85
2021/11/16 03:03:44;;;;;;;42.67;20.23;;;7.50;83.70;;;;;;4935545;29;20404;-86
2021/11/16 03:06:12;;;;;;;39.53;21.25;;;7.50;83.70;;;;;;4936051;29;20048;-85
2021/11/16 03:08:40;;;;;;;41.97;21.98;;;7.50;83.70;;;;;;4934941;29;20047;-85
2021/11/16 03:11:10;;;;;;;38.03;20.67;;;7.50;83.70;;;;;;4934734;29;20420;-86
2021/11/16 03:13:39;;;;;;;36.42;19.25;;;7.50;83.70;;;;;;4934524;29;20409;-85
2021/11/16 03:16:15;;;;;;;36.70;19.80;;;7.50;83.70;;;;;;4919914;29;20056;-85
2021/11/16 03:18:47;;;;;;;38.17;20.35;;;7.50;83.70;;;;;;4933256;29;20135;-85
2021/11/16 03:21:16;;;;;;;44.20;20.25;;;7.50;83.70;;;;;;4936179;29;20527;-86
2021/11/16 03:23:44;;;;;;;35.70;18.95;;;7.50;83.70;;;;;;4934556;29;20062;-85
2021/11/16 03:26:13;;;;;;;35.53;19.08;;;7.40;83.60;;;;;;4934580;29;20047;-85
2021/11/16 03:28:43;;;;;;;36.08;19.10;;;7.40;83.70;;;;;;4934291;29;20047;-85
2021/11/16 03:34:05;;;;;;;39.92;19.25;;;7.50;83.60;;;;;;4861960;29;20054;-85
2021/11/16 03:36:33;;;;;;;35.85;19.27;;;7.40;83.70;;;;;;4877260;29;20061;-86
2021/11/16 03:39:02;;;;;;;34.83;18.77;;;7.40;83.70;;;;;;4876384;29;20049;-85
2021/11/16 03:41:29;;;;;;;37.05;19.98;;;7.50;83.70;;;;;;4876439;29;20061;-85
2021/11/16 03:43:56;;;;;;;41.78;19.77;;;7.40;83.70;;;;;;4860765;29;20053;-85
2021/11/16 03:46:24;;;;;;;36.30;18.45;;;7.40;83.60;;;;;;4876477;29;20041;-85
2021/11/16 03:48:52;;;;;;;33.15;18.20;;;7.40;83.60;;;;;;4876342;29;20079;-85
2021/11/16 03:51:19;;;;;;;36.63;18.77;;;7.40;83.60;;;;;;4875373;29;20439;-85
2021/11/16 03:53:46;;;;;;;36.75;19.23;;;7.40;83.60;;;;;;4876099;29;20065;-85
2021/11/16 03:56:14;;;;;;;37.95;19.67;;;7.40;83.60;;;;;;4876027;29;20061;-87
2021/11/16 03:58:43;;;;;;;37.40;18.38;;;7.40;83.60;;;;;;4875879;29;20057;-86
2021/11/16 04:01:10;;;;;;;36.30;19.88;;;7.40;83.60;;;;;;4876025;29;20412;-86
2021/11/16 04:03:40;;;;;;;35.13;18.70;;;7.40;83.60;;;;;;4876735;29;20633;-85
2021/11/16 04:06:08;;;;;;;33.95;17.70;;;7.40;83.60;;;;;;4876627;29;20055;-85
2021/11/16 04:08:35;;;;;;;36.28;18.40;;;7.40;83.60;;;;;;4876105;29;20537;-85
2021/11/16 04:11:03;;;;;;;35.95;18.55;;;7.40;83.60;;;;;;4904824;29;20421;-86
2021/11/16 04:13:31;;;;;;;32.15;18.08;;;7.40;83.60;;;;;;4933799;29;20500;-86
2021/11/16 04:15:58;;;;;;;34.60;16.73;;;7.40;83.60;;;;;;4933751;29;20510;-85
2021/11/16 04:18:25;;;;;;;35.95;17.70;;;7.40;83.60;;;;;;4934415;29;20477;-85
2021/11/16 04:20:55;;;;;;;33.90;17.30;;;7.40;83.60;;;;;;4933547;29;20059;-86
2021/11/16 04:23:23;;;;;;;32.60;16.73;;;7.40;83.60;;;;;;4933445;29;20052;-85
2021/11/16 04:25:54;;;;;;;35.55;17.25;;;7.40;83.60;;;;;;4933181;29;20247;-85
2021/11/16 04:28:21;;;;;;;32.03;17.08;;;7.40;83.60;;;;;;4933693;29;20472;-85
2021/11/16 04:30:49;;;;;;;33.17;17.63;;;7.40;83.60;;;;;;4932827;29;20047;-85
2021/11/16 04:33:19;;;;;;;31.33;16.67;;;7.40;83.60;;;;;;4933974;29;20070;-85
2021/11/16 04:35:47;;;;;;;35.50;18.80;;;7.40;83.60;;;;;;4932117;29;20074;-85
2021/11/16 04:38:15;;;;;;;31.75;17.35;;;7.40;83.60;;;;;;4933223;29;20059;-86
2021/11/16 04:40:45;;;;;;;35.90;17.80;;;7.40;83.60;;;;;;4932890;29;20052;-85
2021/11/16 04:43:19;;;;;;;34.10;17.80;;;7.40;83.60;;;;;;4933222;29;20102;-85
2021/11/16 04:45:56;;;;;;;32.83;17.58;;;7.40;83.60;;;;;;4934231;29;20535;-85
2021/11/16 05:04:37;;;;;;;35.90;17.67;;;7.40;83.60;;;;;;4932731;29;20052;-85
2021/11/16 05:07:10;;;;;;;32.08;17.45;;;7.40;83.60;;;;;;4932789;29;20098;-85
2021/11/16 05:09:38;;;;;;;33.55;18.35;;;7.40;83.60;;;;;;4931054;29;20055;-85
2021/11/16 05:12:06;;;;;;;34.53;18.63;;;7.40;83.60;;;;;;4933135;29;20052;-86
2021/11/16 05:14:33;;;;;;;36.45;18.45;;;7.40;83.60;;;;;;4932594;29;20104;-86
2021/11/16 05:17:00;;;;;;;34.42;18.10;;;7.40;83.70;;;;;;4931224;29;20438;-86
2021/11/16 05:19:28;;;;;;;34.40;17.73;;;7.40;83.60;;;;;;4932529;29;20067;-86
2021/11/16 05:21:55;;;;;;;32.55;18.13;;;7.40;83.70;;;;;;4932507;29;20051;-86
2021/11/16 05:24:24;;;;;;;32.35;17.95;;;7.30;83.70;;;;;;4934094;29;20055;-85
2021/11/16 05:26:52;;;;;;;34.15;17.42;;;7.40;83.60;;;;;;4932078;29;20509;-86
2021/11/16 05:29:20;;;;;;;37.30;18.58;;;7.40;83.60;;;;;;4929708;29;20070;-86
2021/11/16 05:31:47;;;;;;;36.33;19.67;;;7.40;83.60;;;;;;4932413;29;20043;-85
2021/11/16 05:34:14;;;;;;;40.35;19.35;;;7.40;83.70;;;;;;4932537;29;20110;-86
2021/11/16 05:36:42;;;;;;;37.30;18.90;;;7.40;83.60;;;;;;4933632;29;20047;-86
2021/11/16 05:39:09;;;;;;;40.90;19.35;;;7.40;83.60;;;;;;4932461;29;20055;-85
2021/11/16 05:41:37;;;;;;;36.85;19.08;;;7.40;83.60;;;;;;4932197;29;20055;-85
2021/11/16 05:44:06;;;;;;;41.25;21.30;;;7.40;83.60;;;;;;4930923;29;20058;-85
2021/11/16 05:46:33;;;;;;;38.95;20.30;;;7.40;83.60;;;;;;4932287;29;20054;-85
2021/11/16 05:49:01;;;;;;;37.95;19.45;;;7.30;83.60;;;;;;4932107;29;20062;-85
2021/11/16 05:51:28;;;;;;;41.53;20.70;;;7.40;83.60;;;;;;4933983;29;20048;-85
2021/11/16 05:53:59;;;;;;;42.50;19.42;;;7.30;83.60;;;;;;4931600;29;20070;-85
2021/11/16 05:56:31;;;;;;;36.35;19.65;;;7.30;83.60;;;;;;4931735;29;20048;-85
2021/11/16 05:58:58;;;;;;;36.88;19.20;;;7.30;83.60;;;;;;4931962;29;20039;-85
2021/11/16 06:01:27;;;;;;;39.30;20.05;;;7.30;83.50;;;;;;4931961;29;20056;-84
2021/11/16 06:03:55;;;;;;;40.88;19.98;;;7.30;83.50;;;;;;4931840;29;20055;-85
2021/11/16 06:06:23;;;;;;;36.42;19.88;;;7.30;83.60;;;;;;4933829;29;20059;-85
2021/11/16 06:08:52;;;;;;;44.22;21.08;;;7.30;83.50;;;;;;4930251;29;20052;-85
2021/11/16 06:11:20;;;;;;;39.22;19.23;;;7.30;83.50;;;;;;4931618;29;20051;-85
2021/11/16 06:13:49;;;;;;;40.70;19.73;;;7.30;83.50;;;;;;4930617;29;20047;-85
2021/11/16 06:16:16;;;;;;;42.00;19.20;;;7.20;83.50;;;;;;4931901;29;20048;-85
2021/11/16 06:18:55;;;;;;;38.13;19.38;;;7.30;83.50;;;;;;4932904;29;20115;-85
2021/11/16 06:21:23;;;;;;;39.33;20.27;;;7.30;83.50;;;;;;4931827;29;20291;-85
2021/11/16 06:23:50;;;;;;;41.35;19.35;;;7.30;83.60;;;;;;4931732;29;20087;-85
2021/11/16 06:26:17;;;;;;;42.15;18.92;;;7.20;83.50;;;;;;4931727;29;20087;-85
2021/11/16 06:28:44;;;;;;;42.63;20.75;;;7.20;83.50;;;;;;4931690;29;20543;-85
2021/11/16 06:31:11;;;;;;;40.88;19.95;;;7.20;83.50;;;;;;4931782;29;20096;-85
2021/11/16 06:33:38;;;;;;;39.33;19.40;;;7.20;83.50;;;;;;4933265;29;20055;-84
2021/11/16 06:36:06;;;;;;;40.08;19.20;;;7.20;83.50;;;;;;4929268;29;20095;-85
2021/11/16 06:38:34;;;;;;;41.13;19.98;;;7.20;83.50;;;;;;4933220;29;20066;-85
2021/11/16 06:41:01;;;;;;;40.35;20.60;;;7.20;83.50;;;;;;4935363;29;20062;-86
2021/11/16 06:43:31;;;;;;;38.72;18.15;;;7.20;83.50;;;;;;4935388;29;20086;-86
2021/11/16 06:46:01;;;;;;;38.80;19.70;;;7.20;83.50;;;;;;4935419;29;20615;-86
2021/11/16 06:48:29;;;;;;;40.42;19.88;;;7.10;83.50;;;;;;4936561;29;20142;-85
2021/11/16 06:50:57;;;;;;;44.17;18.88;;;7.10;83.50;;;;;;4934913;29;20052;-86
2021/11/16 06:53:36;;;;;;;39.08;18.88;;;7.10;83.50;;;;;;4935110;29;20532;-85
2021/11/16 06:56:05;;;;;;;42.28;18.73;;;7.10;83.50;;;;;;4934995;29;20051;-86
2021/11/16 06:58:34;;;;;;;38.55;19.00;;;7.10;83.50;;;;;;4931334;29;20056;-86
2021/11/16 07:01:04;;;;;;;39.85;18.30;;;7.10;83.60;;;;;;4927998;29;20067;-86
2021/11/16 07:03:32;;;;;;;44.63;20.50;;;7.10;83.50;;;;;;4937124;29;20047;-86
2021/11/16 07:06:02;;;;;;;40.22;19.40;;;7.10;83.50;;;;;;4935607;29;20055;-86
2021/11/16 07:08:41;;;;;;;39.47;19.75;;;7.10;83.50;;;;;;4936128;29;20075;-85
2021/11/16 07:11:19;;;;;;;39.03;19.00;;;7.10;83.50;;;;;;4935819;29;20052;-86
2021/11/16 07:14:00;;;;;;;43.63;18.83;;;7.00;83.50;;;;;;4936037;29;20119;-86
2021/11/16 07:16:31;;;;;;;39.40;19.67;;;7.00;83.50;;;;;;4936112;29;20043;-86
2021/11/16 07:19:01;;;;;;;45.38;19.98;;;7.00;83.50;;;;;;4935892;29;20056;-86
2021/11/16 07:21:41;;;;;;;45.53;19.45;;;7.00;83.50;;;;;;4937422;29;20051;-85
2021/11/16 07:24:15;;;;;;;42.60;19.33;;;7.00;83.60;;;;;;4935284;29;20115;-85
2021/11/16 07:26:43;;;;;;;;;;;7.00;83.60;;;;;;4933086;29;20068;-84
2021/11/16 07:29:14;;;;;;;45.75;19.52;;;7.00;83.60;;;;;;4935701;29;19926;-84
2021/11/16 07:31:43;;;;;;;42.03;19.70;;;7.00;83.60;;;;;;4935823;29;20086;-85
2021/11/16 07:34:16;;;;;;;48.67;19.63;;;7.00;83.60;;;;;;4935234;29;20104;-85
2021/11/16 07:37:01;;;;;;;41.85;19.38;;;7.00;83.60;;;;;;4936912;29;20055;-85
2021/11/16 07:39:30;;;;;;;46.45;20.77;;;7.00;83.60;;;;;;4937552;29;20473;-85
2021/11/16 07:42:06;;;;;;;46.70;19.95;;;7.00;83.60;;;;;;4935116;29;20535;-85
2021/11/16 07:44:34;;;;;;;45.22;20.65;;;7.00;83.70;;;;;;4935470;29;20055;-86
2021/11/16 07:47:02;;;;;;;46.67;19.70;;;7.00;83.70;;;;;;4935547;29;20489;-86
2021/11/16 07:49:29;;;;;;;42.42;20.42;;;7.00;83.70;;;;;;4934904;29;20065;-85
2021/11/16 07:51:57;;;;;;;47.42;20.20;;;7.00;83.70;;;;;;4935230;29;20048;-85
2021/11/16 07:54:30;;;;;;;43.28;19.63;;;6.90;83.70;;;;;;4937008;29;20107;-85
2021/11/16 07:57:05;;;;;;;39.88;19.10;;;6.90;83.70;;;;;;4935099;29;20047;-85
2021/11/16 07:59:33;;;;;;;41.92;19.30;;;7.00;83.70;;;;;;4935095;29;20047;-85
2021/11/16 08:02:08;;;;;;;44.45;20.40;;;6.90;83.70;;;;;;4934959;29;20063;-85
2021/11/16 08:05:13;;;;;;;41.35;19.02;;;7.00;83.70;;;;;;4933069;29;20491;-85
2021/11/16 08:07:42;;;;;;;39.40;17.58;;;6.90;83.70;;;;;;4920338;29;20043;-85
2021/11/16 08:10:16;;;;;;;39.47;18.85;;;7.00;83.70;;;;;;4920156;29;20063;-85
2021/11/16 08:12:46;;;;;;;41.70;18.48;;;7.00;83.70;;;;;;4936235;29;20044;-85
2021/11/16 08:15:13;;;;;;;37.70;18.85;;;6.90;83.70;;;;;;4936043;29;20044;-85
2021/11/16 08:17:42;;;;;;;41.72;18.92;;;7.00;83.80;;;;;;4934267;29;20575;-85
2021/11/16 08:20:13;;;;;;;37.30;18.75;;;7.00;83.80;;;;;;4934630;29;20044;-85
2021/11/16 08:22:40;;;;;;;36.53;18.27;;;7.00;83.80;;;;;;4934671;29;20047;-85
2021/11/16 08:25:09;;;;;;;40.45;18.38;;;7.00;83.80;;;;;;4919837;29;20048;-84
2021/11/16 08:27:40;;;;;;;39.08;18.65;;;7.00;83.80;;;;;;4933106;29;20083;-85
2021/11/16 08:30:09;;;;;;;37.30;18.40;;;7.00;83.80;;;;;;4933958;29;20059;-85
2021/11/16 08:32:39;;;;;;;44.17;19.90;;;7.00;83.80;;;;;;4933858;29;20102;-85
2021/11/16 08:35:11;;;;;;;41.75;19.50;;;7.00;83.80;;;;;;4934605;29;20047;-85
2021/11/16 08:37:43;;;;;;;38.05;18.27;;;7.00;83.80;;;;;;4934777;29;20538;-85
2021/11/16 08:40:10;;;;;;;37.30;17.13;;;7.00;83.80;;;;;;4933988;29;20107;-84
2021/11/16 08:42:42;;;;;;;43.33;18.52;;;7.00;83.80;;;;;;4936435;29;20059;-85
2021/11/16 08:45:14;;;;;;;37.03;18.33;;;7.00;83.80;;;;;;4934026;29;20051;-85
2021/11/16 08:47:43;;;;;;;39.45;18.30;;;7.00;83.80;;;;;;4933617;29;20155;-85
2021/11/16 08:50:22;;;;;;;41.22;19.00;;;7.00;83.80;;;;;;4934209;29;20055;-85
2021/11/16 08:52:50;;;;;;;41.72;19.75;;;7.00;83.80;;;;;;4934225;29;20120;-85
2021/11/16 08:55:22;;;;;;;38.08;18.60;;;7.00;83.80;;;;;;4933924;29;20516;-85
2021/11/16 08:57:51;;;;;;;38.35;19.13;;;7.00;83.80;;;;;;4934806;29;20048;-85
2021/11/16 09:00:32;;;;;;;42.70;19.40;;;7.00;83.80;;;;;;4932997;29;20051;-85
2021/11/16 09:03:07;;;;;;;39.05;18.08;;;7.00;83.80;;;;;;4932659;29;20048;-85
2021/11/16 09:05:43;;;;;;;38.50;18.63;;;7.10;83.80;;;;;;4933891;29;20070;-85
2021/11/16 09:08:17;;;;;;;38.22;17.98;;;7.00;83.90;;;;;;4934041;29;20056;-85
2021/11/16 09:10:47;;;;;;;42.45;18.92;;;7.10;83.80;;;;;;4933534;29;20540;-87
2021/11/16 09:13:17;;;;;;;43.03;19.35;;;7.10;83.80;;;;;;4933840;29;20040;-85
2021/11/16 09:15:53;;;;;;;38.55;18.10;;;7.10;83.80;;;;;;4934877;29;20114;-85
2021/11/16 09:18:28;;;;;;;40.92;19.05;;;7.10;83.90;;;;;;4933697;29;20103;-85
2021/11/16 09:21:04;;;;;;;39.33;18.08;;;7.10;83.80;;;;;;4933839;29;20055;-85
2021/11/16 09:23:40;;;;;;;46.35;19.33;;;7.10;83.90;;;;;;4932324;29;20059;-85
2021/11/16 09:29:05;;;;;;;42.90;18.70;;;7.10;83.90;;;;;;4933617;29;20044;-85
2021/11/16 09:31:39;;;;;;;39.00;19.15;;;7.10;83.80;;;;;;4933178;29;20055;-86
2021/11/16 09:34:28;;;;;;;38.80;18.88;;;7.10;83.90;;;;;;4918651;29;20481;-86
2021/11/16 09:37:14;;;;;;;39.92;19.08;;;7.10;83.90;;;;;;4932305;29;20051;-86
2021/11/16 09:39:49;;;;;;;37.33;19.02;;;7.10;83.90;;;;;;4929824;29;20055;-86
2021/11/16 09:42:28;;;;;;;40.45;17.90;;;7.10;83.90;;;;;;4935215;29;20489;-85
2021/11/16 09:45:05;;;;;;;40.78;18.60;;;7.10;83.90;;;;;;4933121;29;20067;-85
2021/11/16 09:47:36;;;;;;;42.42;19.33;;;7.10;83.90;;;;;;4933060;29;20047;-85
2021/11/16 09:50:08;;;;;;;40.42;19.17;;;7.10;83.90;;;;;;4932006;29;20052;-85
2021/11/16 09:52:41;;;;;;;35.90;16.92;;;7.10;83.90;;;;;;4932225;29;20433;-85
2021/11/16 09:55:18;;;;;;;43.28;20.17;;;7.20;83.90;;;;;;4917360;29;20537;-84
2021/11/16 09:57:47;;;;;;;38.97;20.45;;;7.10;83.90;;;;;;4930746;29;20044;-85
2021/11/16 10:00:18;;;;;;;40.78;19.65;;;7.10;83.90;;;;;;4933128;29;20051;-85
2021/11/16 10:02:51;;;;;;;35.45;17.90;;;7.20;83.90;;;;;;4930588;29;20052;-85
2021/11/16 10:05:23;;;;;;;54.33;20.37;;;7.20;83.90;;;;;;4931698;29;20056;-84
2021/11/16 10:07:54;;;;;;;39.58;19.10;;;7.20;83.90;;;;;;4931800;29;20039;-84
2021/11/16 10:10:24;;;;;;;37.47;18.48;;;7.20;84.00;;;;;;4931893;29;20055;-85
2021/11/16 10:12:54;;;;;;;42.63;19.00;;;7.20;83.90;;;;;;4932008;29;20111;-84
2021/11/16 10:15:25;;;;;;;41.20;18.85;;;7.20;83.90;;;;;;4931758;29;20074;-85
2021/11/16 10:17:53;;;;;;;39.00;18.55;;;7.20;83.90;;;;;;4931700;29;20059;-86
2021/11/16 10:20:33;;;;;;;40.85;19.15;;;7.30;84.00;;;;;;4931657;29;20114;-85
2021/11/16 10:23:39;;;;;;;40.90;18.90;;;7.30;84.00;;;;;;4931624;29;20477;-84
2021/11/16 10:26:07;;;;;;;42.65;18.95;;;7.30;84.00;;;;;;4931580;29;20064;-85
2021/11/16 10:28:40;;;;;;;35.67;17.83;;;7.30;84.00;;;;;;4930050;29;20047;-85
2021/11/16 10:31:07;;;;;;;38.45;19.10;;;7.30;84.00;;;;;;4914407;29;20409;-85
2021/11/16 10:33:37;;;;;;;37.80;18.13;;;7.30;84.00;;;;;;4929794;29;20055;-84
2021/11/16 10:36:08;;;;;;;40.33;18.67;;;7.30;84.00;;;;;;4932080;29;20052;-84
2021/11/16 10:38:48;;;;;;;36.03;17.95;;;7.40;84.00;;;;;;4931342;29;20445;-84
2021/11/16 10:41:18;;;;;;;38.97;19.17;;;7.40;84.00;;;;;;4928563;29;20055;-84
2021/11/16 10:43:51;;;;;;;40.13;19.60;;;7.40;84.00;;;;;;4930340;29;20074;-84
2021/11/16 10:46:22;;;;;;;37.92;18.38;;;7.40;83.90;;;;;;4932686;29;20052;-84
2021/11/16 10:48:50;;;;;;;43.88;20.48;;;7.40;83.90;;;;;;4933544;29;20090;-84
2021/11/16 10:51:17;;;;;;;39.47;18.08;;;7.40;83.90;;;;;;4934002;29;20066;-84
2021/11/16 10:53:54;;;;;;;38.67;18.75;;;7.40;83.90;;;;;;4932605;29;20440;-85
2021/11/16 10:56:27;;;;;;;38.95;18.55;;;7.40;83.90;;;;;;4932526;29;20055;-84
2021/11/16 10:59:18;;;;;;;37.47;18.98;;;7.40;83.90;;;;;;4931987;29;20051;-84
2021/11/16 11:01:53;;;;;;;33.92;17.42;;;7.40;83.90;;;;;;4932607;29;20421;-85
2021/11/16 11:04:24;;;;;;;45.65;19.45;;;7.40;83.90;;;;;;4932765;29;20047;-85
2021/11/16 11:06:53;;;;;;;33.92;17.85;;;7.40;83.80;;;;;;4932677;29;20058;-86
2021/11/16 11:09:22;;;;;;;42.10;17.42;;;7.40;83.90;;;;;;4932629;29;20052;-85
2021/11/16 11:11:51;;;;;;;37.88;18.60;;;7.40;83.90;;;;;;4932026;29;20483;-85
2021/11/16 11:14:40;;;;;;;35.75;18.13;;;7.40;83.90;;;;;;4932145;29;20043;-85
2021/11/16 11:17:10;;;;;;;52.97;23.17;;;7.50;83.90;;;;;;4931423;29;20055;-86
2021/11/16 11:19:40;;;;;;;39.55;19.25;;;7.50;83.90;;;;;;4933460;29;20043;-85
2021/11/16 11:24:49;;;;;;;45.08;20.65;;;7.50;83.90;;;;;;4933461;29;20048;-86
2021/11/16 11:27:35;;;;;;;41.40;19.90;;;7.50;83.90;;;;;;4937290;29;20048;-86
2021/11/16 11:30:08;;;;;;;37.90;19.70;;;7.50;83.90;;;;;;4935266;29;20539;-86
2021/11/16 11:32:41;;;;;;;43.97;20.23;;;7.60;84.00;;;;;;4934426;29;20056;-85
2021/11/16 11:35:09;;;;;;;38.05;19.98;;;7.60;84.00;;;;;;4935359;29;20316;-85
2021/11/16 11:37:44;;;;;;;41.60;20.15;;;7.60;84.00;;;;;;4935559;29;20139;-85
2021/11/16 11:40:11;;;;;;;42.97;20.98;;;7.60;84.00;;;;;;4921186;29;20056;-85
2021/11/16 11:42:52;;;;;;;40.38;20.25;;;7.60;84.00;;;;;;4936681;29;20048;-86
2021/11/16 11:45:36;;;;;;;38.85;20.08;;;7.60;84.00;;;;;;4935092;29;20114;-85
2021/11/16 11:48:03;;;;;;;37.53;18.90;;;7.60;84.00;;;;;;4933453;29;20083;-86
2021/11/16 11:50:44;;;;;;;38.83;19.77;;;7.60;83.90;;;;;;4935120;29;20051;-85
2021/11/16 11:53:12;;;;;;;37.22;19.00;;;7.60;83.90;;;;;;4935455;29;20051;-85
2021/11/16 11:55:45;;;;;;;40.08;21.08;;;7.60;83.90;;;;;;4934977;29;20103;-85
2021/11/16 11:58:14;;;;;;;38.37;19.53;;;7.60;84.00;;;;;;4920466;29;20104;-86
2021/11/16 12:00:43;;;;;;;37.28;19.33;;;7.70;84.00;;;;;;4935928;29;20055;-86
2021/11/16 12:03:11;;;;;;;35.63;19.02;;;7.70;84.00;;;;;;4933964;29;20051;-86
2021/11/16 12:05:42;;;;;;;36.17;18.80;;;7.60;84.00;;;;;;4934683;29;20058;-85
2021/11/16 12:08:11;;;;;;;39.38;20.80;;;7.70;84.00;;;;;;4935101;29;20044;-86
2021/11/16 12:10:40;;;;;;;37.22;18.48;;;7.70;84.00;;;;;;4934903;29;20530;-86
2021/11/16 12:13:09;;;;;;;40.42;19.77;;;7.70;84.00;;;;;;4919875;29;20048;-86
2021/11/16 12:16:07;;;;;;;37.20;18.30;;;7.70;84.00;;;;;;4933170;29;20060;-86
2021/11/16 12:18:42;;;;;;;37.38;18.02;;;7.70;84.10;;;;;;4937016;29;20175;-86
2021/11/16 12:21:28;;;;;;;34.13;18.27;;;7.70;84.10;;;;;;4935030;29;20397;-85
2021/11/16 12:24:06;;;;;;;36.65;18.88;;;7.70;84.10;;;;;;4934620;29;20051;-86
2021/11/16 12:26:56;;;;;;;35.47;17.42;;;7.70;84.10;;;;;;4934878;29;20457;-86
2021/11/16 12:29:28;;;;;;;33.90;17.95;;;7.70;84.10;;;;;;4934085;29;20047;-86
2021/11/16 12:32:15;;;;;;;34.13;17.63;;;7.70;84.10;;;;;;4934768;29;20103;-86
2021/11/16 12:34:49;;;;;;;36.55;17.95;;;7.70;84.10;;;;;;4933455;29;20513;-85
2021/11/16 12:37:46;;;;;;;34.72;16.60;;;7.70;84.20;;;;;;4928344;29;20055;-86
2021/11/16 12:40:18;;;;;;;32.08;16.58;;;7.70;84.20;;;;;;4919879;29;20056;-87
2021/11/16 12:43:07;;;;;;;33.10;17.50;;;7.70;84.20;;;;;;4930985;29;20110;-86
2021/11/16 12:45:46;;;;;;;32.22;16.25;;;7.70;84.30;;;;;;4925471;29;20067;-86
2021/11/16 12:48:16;;;;;;;31.73;16.48;;;7.70;84.30;;;;;;4921306;29;20051;-86
2021/11/16 12:51:06;;;;;;;33.70;17.13;;;7.70;84.30;;;;;;4921226;29;20052;-86
2021/11/16 12:53:54;;;;;;;31.40;15.50;;;7.80;84.30;;;;;;4920475;29;20048;-85
2021/11/16 12:56:42;;;;;;;30.52;15.35;;;7.80;84.40;;;;;;4921161;29;20092;-86
2021/11/16 12:59:15;;;;;;;30.52;15.10;;;7.80;84.40;;;;;;4921287;29;20044;-85
2021/11/16 13:01:49;;;;;;;28.73;15.07;;;7.80;84.40;;;;;;4920876;29;20479;-86
2021/11/16 13:04:19;;;;;;;28.80;14.98;;;7.80;84.40;;;;;;4917827;29;20068;-86
2021/11/16 13:07:15;;;;;;;32.47;15.80;;;7.80;84.40;;;;;;4918723;29;20517;-86
2021/11/16 13:09:48;;;;;;;30.23;15.07;;;7.90;84.40;;;;;;4931018;29;20048;-86
2021/11/16 13:12:33;;;;;;;26.83;14.35;;;7.90;84.40;;;;;;4921794;29;20565;-86
2021/11/16 13:15:31;;;;;;;27.90;14.75;;;7.90;84.40;;;;;;4921193;29;20457;-86
2021/11/16 13:18:06;;;;;;;26.98;14.63;;;7.90;84.40;;;;;;4931352;29;20059;-85
2021/11/16 13:20:36;;;;;;;27.60;14.35;;;7.90;84.40;;;;;;4935277;29;20083;-85
2021/11/16 13:23:07;;;;;;;27.00;14.07;;;7.90;84.30;;;;;;4923691;29;20087;-84